sensor_id;sensor_type;location;lat;lon;timestamp;P1;durP1;ratioP1;P2;durP2;ratioP2
74415;SDS011;62850;42.428;25.618;2023-06-14T00:01:45;7.30;;;4.05;;
74415;SDS011;62850;42.428;25.618;2023-06-14T00:04:11;7.55;;;4.28;;
74415;SDS011;62850;42.428;25.618;2023-06-14T00:06:38;6.35;;;3.95;;
74415;SDS011;62850;42.428;25.618;2023-06-14T00:09:04;7.90;;;3.80;;
74415;SDS011;62850;42.428;25.618;2023-06-14T00:11:33;7.35;;;4.10;;
74415;SDS011;62850;42.428;25.618;2023-06-14T00:13:59;7.30;;;4.13;;
74415;SDS011;62850;42.428;25.618;2023-06-14T00:16:26;6.65;;;3.80;;
74415;SDS011;62850;42.428;25.618;2023-06-14T00:18:52;7.93;;;3.80;;
74415;SDS011;62850;42.428;25.618;2023-06-14T00:21:18;10.02;;;3.95;;
74415;SDS011;62850;42.428;25.618;2023-06-14T00:23:44;8.00;;;5.13;;
74415;SDS011;62850;42.428;25.618;2023-06-14T00:26:09;5.30;;;3.70;;
74415;SDS011;62850;42.428;25.618;2023-06-14T00:28:36;8.07;;;4.10;;
74415;SDS011;62850;42.428;25.618;2023-06-14T00:31:02;6.65;;;3.78;;
74415;SDS011;62850;42.428;25.618;2023-06-14T00:33:28;6.38;;;3.45;;
74415;SDS011;62850;42.428;25.618;2023-06-14T00:35:54;6.82;;;3.92;;
74415;SDS011;62850;42.428;25.618;2023-06-14T00:38:20;5.20;;;3.63;;
74415;SDS011;62850;42.428;25.618;2023-06-14T00:40:46;6.93;;;3.15;;
74415;SDS011;62850;42.428;25.618;2023-06-14T00:43:13;10.13;;;3.40;;
74415;SDS011;62850;42.428;25.618;2023-06-14T00:45:39;5.50;;;3.47;;
74415;SDS011;62850;42.428;25.618;2023-06-14T00:48:05;6.22;;;3.40;;
74415;SDS011;62850;42.428;25.618;2023-06-14T00:50:33;5.82;;;3.78;;
74415;SDS011;62850;42.428;25.618;2023-06-14T00:53:00;4.97;;;3.17;;
74415;SDS011;62850;42.428;25.618;2023-06-14T00:55:27;5.40;;;3.42;;
74415;SDS011;62850;42.428;25.618;2023-06-14T00:57:56;5.07;;;3.40;;
74415;SDS011;62850;42.428;25.618;2023-06-14T01:00:22;5.40;;;3.17;;
74415;SDS011;62850;42.428;25.618;2023-06-14T01:02:48;5.78;;;3.80;;
74415;SDS011;62850;42.428;25.618;2023-06-14T01:05:15;7.15;;;3.92;;
74415;SDS011;62850;42.428;25.618;2023-06-14T01:15:26;10.77;;;4.00;;
74415;SDS011;62850;42.428;25.618;2023-06-14T01:17:56;6.78;;;3.53;;
74415;SDS011;62850;42.428;25.618;2023-06-14T01:20:29;5.63;;;3.22;;
74415;SDS011;62850;42.428;25.618;2023-06-14T01:22:56;5.22;;;3.35;;
74415;SDS011;62850;42.428;25.618;2023-06-14T01:25:22;5.55;;;3.67;;
74415;SDS011;62850;42.428;25.618;2023-06-14T01:30:25;7.43;;;4.25;;
74415;SDS011;62850;42.428;25.618;2023-06-14T01:32:53;6.97;;;3.55;;
74415;SDS011;62850;42.428;25.618;2023-06-14T01:35:21;11.25;;;3.20;;
74415;SDS011;62850;42.428;25.618;2023-06-14T01:37:48;6.57;;;3.80;;
74415;SDS011;62850;42.428;25.618;2023-06-14T01:40:17;5.57;;;3.30;;
74415;SDS011;62850;42.428;25.618;2023-06-14T01:42:45;7.28;;;3.05;;
74415;SDS011;62850;42.428;25.618;2023-06-14T01:45:13;4.50;;;3.10;;
74415;SDS011;62850;42.428;25.618;2023-06-14T01:47:41;6.03;;;3.38;;
74415;SDS011;62850;42.428;25.618;2023-06-14T01:50:07;7.40;;;3.47;;
74415;SDS011;62850;42.428;25.618;2023-06-14T01:52:33;5.03;;;3.20;;
74415;SDS011;62850;42.428;25.618;2023-06-14T01:54:59;5.45;;;2.85;;
74415;SDS011;62850;42.428;25.618;2023-06-14T01:57:27;5.85;;;3.00;;
74415;SDS011;62850;42.428;25.618;2023-06-14T01:59:53;6.95;;;3.00;;
74415;SDS011;62850;42.428;25.618;2023-06-14T02:02:18;5.72;;;3.28;;
74415;SDS011;62850;42.428;25.618;2023-06-14T02:04:45;5.43;;;2.88;;
74415;SDS011;62850;42.428;25.618;2023-06-14T02:07:12;6.72;;;3.40;;
74415;SDS011;62850;42.428;25.618;2023-06-14T02:09:39;6.43;;;2.92;;
74415;SDS011;62850;42.428;25.618;2023-06-14T02:12:06;5.70;;;3.25;;
74415;SDS011;62850;42.428;25.618;2023-06-14T02:14:32;7.20;;;3.00;;
74415;SDS011;62850;42.428;25.618;2023-06-14T02:16:59;4.72;;;3.15;;
74415;SDS011;62850;42.428;25.618;2023-06-14T02:19:26;6.25;;;3.20;;
74415;SDS011;62850;42.428;25.618;2023-06-14T02:21:52;7.68;;;3.25;;
74415;SDS011;62850;42.428;25.618;2023-06-14T02:24:18;6.45;;;3.53;;
74415;SDS011;62850;42.428;25.618;2023-06-14T02:26:44;5.00;;;3.30;;
74415;SDS011;62850;42.428;25.618;2023-06-14T02:29:11;5.50;;;3.17;;
74415;SDS011;62850;42.428;25.618;2023-06-14T02:31:39;9.70;;;3.17;;
74415;SDS011;62850;42.428;25.618;2023-06-14T02:34:05;7.50;;;3.25;;
74415;SDS011;62850;42.428;25.618;2023-06-14T02:36:34;5.60;;;3.35;;
74415;SDS011;62850;42.428;25.618;2023-06-14T02:39:06;4.97;;;3.20;;
74415;SDS011;62850;42.428;25.618;2023-06-14T02:41:35;6.15;;;3.30;;
74415;SDS011;62850;42.428;25.618;2023-06-14T02:44:01;8.35;;;3.15;;
74415;SDS011;62850;42.428;25.618;2023-06-14T02:46:26;5.40;;;3.10;;
74415;SDS011;62850;42.428;25.618;2023-06-14T02:48:52;5.22;;;3.30;;
74415;SDS011;62850;42.428;25.618;2023-06-14T02:51:18;5.93;;;3.17;;
74415;SDS011;62850;42.428;25.618;2023-06-14T02:53:44;8.48;;;3.15;;
74415;SDS011;62850;42.428;25.618;2023-06-14T02:56:10;11.63;;;3.50;;
74415;SDS011;62850;42.428;25.618;2023-06-14T02:58:37;5.93;;;2.97;;
74415;SDS011;62850;42.428;25.618;2023-06-14T03:01:05;7.38;;;2.78;;
74415;SDS011;62850;42.428;25.618;2023-06-14T03:03:33;4.65;;;2.80;;
74415;SDS011;62850;42.428;25.618;2023-06-14T03:05:59;5.05;;;2.60;;
74415;SDS011;62850;42.428;25.618;2023-06-14T03:10:56;4.88;;;2.80;;
74415;SDS011;62850;42.428;25.618;2023-06-14T03:13:22;4.72;;;2.40;;
74415;SDS011;62850;42.428;25.618;2023-06-14T03:15:49;5.72;;;3.00;;
74415;SDS011;62850;42.428;25.618;2023-06-14T03:18:16;4.30;;;2.80;;
74415;SDS011;62850;42.428;25.618;2023-06-14T03:20:42;5.25;;;2.70;;
74415;SDS011;62850;42.428;25.618;2023-06-14T03:23:10;7.07;;;3.20;;
74415;SDS011;62850;42.428;25.618;2023-06-14T03:25:36;7.95;;;2.63;;
74415;SDS011;62850;42.428;25.618;2023-06-14T03:28:04;5.32;;;3.08;;
74415;SDS011;62850;42.428;25.618;2023-06-14T03:30:30;4.78;;;2.63;;
74415;SDS011;62850;42.428;25.618;2023-06-14T03:32:56;5.68;;;3.00;;
74415;SDS011;62850;42.428;25.618;2023-06-14T03:35:23;7.47;;;3.08;;
74415;SDS011;62850;42.428;25.618;2023-06-14T03:37:49;5.97;;;2.92;;
74415;SDS011;62850;42.428;25.618;2023-06-14T03:40:16;6.05;;;3.53;;
74415;SDS011;62850;42.428;25.618;2023-06-14T03:42:43;5.82;;;3.00;;
74415;SDS011;62850;42.428;25.618;2023-06-14T03:45:09;4.72;;;3.15;;
74415;SDS011;62850;42.428;25.618;2023-06-14T03:47:36;7.85;;;3.55;;
74415;SDS011;62850;42.428;25.618;2023-06-14T03:50:02;6.18;;;3.20;;
74415;SDS011;62850;42.428;25.618;2023-06-14T03:52:29;5.30;;;3.38;;
74415;SDS011;62850;42.428;25.618;2023-06-14T03:54:56;4.78;;;3.30;;
74415;SDS011;62850;42.428;25.618;2023-06-14T03:57:23;7.97;;;3.60;;
74415;SDS011;62850;42.428;25.618;2023-06-14T03:59:49;5.10;;;3.33;;
74415;SDS011;62850;42.428;25.618;2023-06-14T04:02:16;8.32;;;3.45;;
74415;SDS011;62850;42.428;25.618;2023-06-14T04:04:43;8.10;;;3.67;;
74415;SDS011;62850;42.428;25.618;2023-06-14T04:07:11;7.82;;;3.83;;
74415;SDS011;62850;42.428;25.618;2023-06-14T04:09:40;5.88;;;3.83;;
74415;SDS011;62850;42.428;25.618;2023-06-14T04:12:06;8.95;;;4.63;;
74415;SDS011;62850;42.428;25.618;2023-06-14T04:14:34;7.22;;;3.70;;
74415;SDS011;62850;42.428;25.618;2023-06-14T04:17:01;5.22;;;3.40;;
74415;SDS011;62850;42.428;25.618;2023-06-14T04:19:27;10.18;;;4.00;;
74415;SDS011;62850;42.428;25.618;2023-06-14T04:21:53;6.65;;;3.40;;
74415;SDS011;62850;42.428;25.618;2023-06-14T04:24:20;5.20;;;3.30;;
74415;SDS011;62850;42.428;25.618;2023-06-14T04:26:46;5.30;;;3.58;;
74415;SDS011;62850;42.428;25.618;2023-06-14T04:29:14;6.70;;;3.88;;
74415;SDS011;62850;42.428;25.618;2023-06-14T04:31:41;5.80;;;3.53;;
74415;SDS011;62850;42.428;25.618;2023-06-14T04:34:09;8.93;;;3.30;;
74415;SDS011;62850;42.428;25.618;2023-06-14T04:36:41;6.07;;;3.47;;
74415;SDS011;62850;42.428;25.618;2023-06-14T04:39:18;5.05;;;2.90;;
74415;SDS011;62850;42.428;25.618;2023-06-14T04:41:48;5.28;;;3.35;;
74415;SDS011;62850;42.428;25.618;2023-06-14T04:44:20;8.07;;;3.70;;
74415;SDS011;62850;42.428;25.618;2023-06-14T04:46:49;8.70;;;3.58;;
74415;SDS011;62850;42.428;25.618;2023-06-14T04:49:17;5.00;;;3.45;;
74415;SDS011;62850;42.428;25.618;2023-06-14T04:51:44;6.57;;;3.17;;
74415;SDS011;62850;42.428;25.618;2023-06-14T04:54:11;6.45;;;3.10;;
74415;SDS011;62850;42.428;25.618;2023-06-14T04:56:40;8.48;;;3.33;;
74415;SDS011;62850;42.428;25.618;2023-06-14T04:59:07;6.50;;;3.17;;
74415;SDS011;62850;42.428;25.618;2023-06-14T05:01:34;6.60;;;3.20;;
74415;SDS011;62850;42.428;25.618;2023-06-14T05:04:00;5.93;;;3.20;;
74415;SDS011;62850;42.428;25.618;2023-06-14T05:06:26;6.78;;;3.15;;
74415;SDS011;62850;42.428;25.618;2023-06-14T05:08:53;8.27;;;3.60;;
74415;SDS011;62850;42.428;25.618;2023-06-14T05:11:19;8.32;;;3.47;;
74415;SDS011;62850;42.428;25.618;2023-06-14T05:13:45;5.75;;;3.20;;
74415;SDS011;62850;42.428;25.618;2023-06-14T05:16:12;6.60;;;3.08;;
74415;SDS011;62850;42.428;25.618;2023-06-14T05:18:37;4.97;;;2.78;;
74415;SDS011;62850;42.428;25.618;2023-06-14T05:21:05;11.25;;;4.15;;
74415;SDS011;62850;42.428;25.618;2023-06-14T05:23:31;9.77;;;3.97;;
74415;SDS011;62850;42.428;25.618;2023-06-14T05:25:57;7.32;;;4.40;;
74415;SDS011;62850;42.428;25.618;2023-06-14T05:28:23;8.18;;;4.13;;
74415;SDS011;62850;42.428;25.618;2023-06-14T05:30:50;10.68;;;5.38;;
74415;SDS011;62850;42.428;25.618;2023-06-14T05:33:17;7.90;;;4.78;;
74415;SDS011;62850;42.428;25.618;2023-06-14T05:35:43;7.07;;;4.53;;
74415;SDS011;62850;42.428;25.618;2023-06-14T05:38:09;10.30;;;4.97;;
74415;SDS011;62850;42.428;25.618;2023-06-14T05:40:36;9.38;;;5.10;;
74415;SDS011;62850;42.428;25.618;2023-06-14T05:43:03;8.80;;;4.70;;
74415;SDS011;62850;42.428;25.618;2023-06-14T05:45:29;13.10;;;5.75;;
74415;SDS011;62850;42.428;25.618;2023-06-14T05:47:55;10.55;;;6.00;;
74415;SDS011;62850;42.428;25.618;2023-06-14T05:50:20;12.00;;;5.93;;
74415;SDS011;62850;42.428;25.618;2023-06-14T05:52:46;8.68;;;5.20;;
74415;SDS011;62850;42.428;25.618;2023-06-14T05:55:13;11.80;;;6.22;;
74415;SDS011;62850;42.428;25.618;2023-06-14T05:57:38;11.40;;;5.57;;
74415;SDS011;62850;42.428;25.618;2023-06-14T06:00:05;11.77;;;6.13;;
74415;SDS011;62850;42.428;25.618;2023-06-14T06:02:40;17.33;;;6.22;;
74415;SDS011;62850;42.428;25.618;2023-06-14T06:05:08;11.63;;;6.43;;
74415;SDS011;62850;42.428;25.618;2023-06-14T06:07:33;15.25;;;5.65;;
74415;SDS011;62850;42.428;25.618;2023-06-14T06:09:59;12.52;;;6.55;;
74415;SDS011;62850;42.428;25.618;2023-06-14T06:12:25;17.35;;;7.40;;
74415;SDS011;62850;42.428;25.618;2023-06-14T06:14:51;10.70;;;5.47;;
74415;SDS011;62850;42.428;25.618;2023-06-14T06:17:17;9.05;;;5.72;;
74415;SDS011;62850;42.428;25.618;2023-06-14T06:19:44;15.43;;;6.55;;
74415;SDS011;62850;42.428;25.618;2023-06-14T06:22:09;18.20;;;8.57;;
74415;SDS011;62850;42.428;25.618;2023-06-14T06:24:35;19.52;;;8.73;;
74415;SDS011;62850;42.428;25.618;2023-06-14T06:27:02;21.02;;;10.07;;
74415;SDS011;62850;42.428;25.618;2023-06-14T06:29:28;22.77;;;10.52;;
74415;SDS011;62850;42.428;25.618;2023-06-14T06:31:54;19.35;;;8.77;;
74415;SDS011;62850;42.428;25.618;2023-06-14T06:34:21;13.15;;;6.65;;
74415;SDS011;62850;42.428;25.618;2023-06-14T06:36:47;11.27;;;5.75;;
74415;SDS011;62850;42.428;25.618;2023-06-14T06:39:13;10.95;;;5.43;;
74415;SDS011;62850;42.428;25.618;2023-06-14T06:41:40;12.93;;;6.05;;
74415;SDS011;62850;42.428;25.618;2023-06-14T06:44:06;42.10;;;19.13;;
74415;SDS011;62850;42.428;25.618;2023-06-14T06:46:33;20.00;;;8.73;;
74415;SDS011;62850;42.428;25.618;2023-06-14T06:49:00;20.08;;;9.48;;
74415;SDS011;62850;42.428;25.618;2023-06-14T06:51:27;22.25;;;9.20;;
74415;SDS011;62850;42.428;25.618;2023-06-14T06:53:53;17.60;;;8.38;;
74415;SDS011;62850;42.428;25.618;2023-06-14T06:56:20;21.27;;;10.02;;
74415;SDS011;62850;42.428;25.618;2023-06-14T06:58:48;35.60;;;13.75;;
74415;SDS011;62850;42.428;25.618;2023-06-14T07:01:15;19.80;;;9.63;;
74415;SDS011;62850;42.428;25.618;2023-06-14T07:03:41;12.60;;;6.63;;
74415;SDS011;62850;42.428;25.618;2023-06-14T07:06:07;13.50;;;5.32;;
74415;SDS011;62850;42.428;25.618;2023-06-14T07:08:34;7.30;;;4.03;;
74415;SDS011;62850;42.428;25.618;2023-06-14T07:11:01;14.00;;;5.75;;
74415;SDS011;62850;42.428;25.618;2023-06-14T07:13:27;10.50;;;4.70;;
74415;SDS011;62850;42.428;25.618;2023-06-14T07:15:59;8.15;;;4.40;;
74415;SDS011;62850;42.428;25.618;2023-06-14T07:18:27;7.75;;;4.63;;
74415;SDS011;62850;42.428;25.618;2023-06-14T07:20:53;9.07;;;4.32;;
74415;SDS011;62850;42.428;25.618;2023-06-14T07:23:20;9.57;;;4.28;;
74415;SDS011;62850;42.428;25.618;2023-06-14T07:25:46;6.88;;;4.38;;
74415;SDS011;62850;42.428;25.618;2023-06-14T07:28:13;10.32;;;4.50;;
74415;SDS011;62850;42.428;25.618;2023-06-14T07:30:39;7.55;;;3.80;;
74415;SDS011;62850;42.428;25.618;2023-06-14T07:33:05;8.48;;;3.50;;
74415;SDS011;62850;42.428;25.618;2023-06-14T07:35:31;7.40;;;4.22;;
74415;SDS011;62850;42.428;25.618;2023-06-14T07:37:58;6.90;;;3.88;;
74415;SDS011;62850;42.428;25.618;2023-06-14T07:40:24;8.98;;;4.65;;
74415;SDS011;62850;42.428;25.618;2023-06-14T07:42:49;11.35;;;5.10;;
74415;SDS011;62850;42.428;25.618;2023-06-14T07:45:15;8.07;;;4.45;;
74415;SDS011;62850;42.428;25.618;2023-06-14T07:47:42;8.68;;;4.60;;
74415;SDS011;62850;42.428;25.618;2023-06-14T07:50:08;14.68;;;7.95;;
74415;SDS011;62850;42.428;25.618;2023-06-14T07:52:34;18.17;;;7.60;;
74415;SDS011;62850;42.428;25.618;2023-06-14T07:55:00;12.30;;;7.80;;
74415;SDS011;62850;42.428;25.618;2023-06-14T07:57:26;14.35;;;8.75;;
74415;SDS011;62850;42.428;25.618;2023-06-14T07:59:52;13.75;;;7.10;;
74415;SDS011;62850;42.428;25.618;2023-06-14T08:02:19;7.13;;;4.05;;
74415;SDS011;62850;42.428;25.618;2023-06-14T08:04:45;7.28;;;4.10;;
74415;SDS011;62850;42.428;25.618;2023-06-14T08:07:14;9.15;;;3.90;;
74415;SDS011;62850;42.428;25.618;2023-06-14T08:09:41;7.13;;;3.88;;
74415;SDS011;62850;42.428;25.618;2023-06-14T08:12:07;11.15;;;6.45;;
74415;SDS011;62850;42.428;25.618;2023-06-14T08:14:35;13.38;;;5.45;;
74415;SDS011;62850;42.428;25.618;2023-06-14T08:17:01;9.52;;;5.38;;
74415;SDS011;62850;42.428;25.618;2023-06-14T08:19:26;9.18;;;4.38;;
74415;SDS011;62850;42.428;25.618;2023-06-14T08:21:53;6.85;;;3.75;;
74415;SDS011;62850;42.428;25.618;2023-06-14T08:24:23;9.32;;;3.78;;
74415;SDS011;62850;42.428;25.618;2023-06-14T08:26:50;7.15;;;3.83;;
74415;SDS011;62850;42.428;25.618;2023-06-14T08:29:16;5.93;;;3.80;;
74415;SDS011;62850;42.428;25.618;2023-06-14T08:31:42;8.30;;;4.15;;
74415;SDS011;62850;42.428;25.618;2023-06-14T08:34:08;11.57;;;4.57;;
74415;SDS011;62850;42.428;25.618;2023-06-14T08:36:34;6.43;;;3.78;;
74415;SDS011;62850;42.428;25.618;2023-06-14T08:39:00;9.95;;;4.32;;
74415;SDS011;62850;42.428;25.618;2023-06-14T08:41:27;12.35;;;4.55;;
74415;SDS011;62850;42.428;25.618;2023-06-14T08:43:54;11.18;;;6.03;;
74415;SDS011;62850;42.428;25.618;2023-06-14T08:46:21;8.20;;;4.20;;
74415;SDS011;62850;42.428;25.618;2023-06-14T08:48:50;6.57;;;3.90;;
74415;SDS011;62850;42.428;25.618;2023-06-14T08:51:20;7.53;;;4.25;;
74415;SDS011;62850;42.428;25.618;2023-06-14T08:53:53;7.85;;;3.80;;
74415;SDS011;62850;42.428;25.618;2023-06-14T08:56:25;6.47;;;3.95;;
74415;SDS011;62850;42.428;25.618;2023-06-14T08:58:53;6.60;;;4.10;;
74415;SDS011;62850;42.428;25.618;2023-06-14T09:01:22;11.95;;;4.45;;
74415;SDS011;62850;42.428;25.618;2023-06-14T09:03:49;7.18;;;3.67;;
74415;SDS011;62850;42.428;25.618;2023-06-14T09:06:16;7.38;;;4.10;;
74415;SDS011;62850;42.428;25.618;2023-06-14T09:08:44;5.63;;;3.97;;
74415;SDS011;62850;42.428;25.618;2023-06-14T09:11:12;7.05;;;3.50;;
74415;SDS011;62850;42.428;25.618;2023-06-14T09:13:39;6.32;;;3.70;;
74415;SDS011;62850;42.428;25.618;2023-06-14T09:16:06;7.82;;;3.22;;
74415;SDS011;62850;42.428;25.618;2023-06-14T09:18:35;5.13;;;3.47;;
74415;SDS011;62850;42.428;25.618;2023-06-14T09:21:07;4.88;;;3.08;;
74415;SDS011;62850;42.428;25.618;2023-06-14T09:23:37;7.88;;;3.28;;
74415;SDS011;62850;42.428;25.618;2023-06-14T09:26:12;7.75;;;4.75;;
74415;SDS011;62850;42.428;25.618;2023-06-14T09:28:46;5.88;;;3.13;;
74415;SDS011;62850;42.428;25.618;2023-06-14T09:31:14;7.57;;;3.47;;
74415;SDS011;62850;42.428;25.618;2023-06-14T09:33:45;5.38;;;3.53;;
74415;SDS011;62850;42.428;25.618;2023-06-14T09:36:25;4.82;;;2.90;;
74415;SDS011;62850;42.428;25.618;2023-06-14T09:38:51;7.40;;;3.10;;
74415;SDS011;62850;42.428;25.618;2023-06-14T09:41:18;5.38;;;3.25;;
74415;SDS011;62850;42.428;25.618;2023-06-14T09:43:46;5.28;;;2.92;;
74415;SDS011;62850;42.428;25.618;2023-06-14T09:46:12;7.60;;;3.90;;
74415;SDS011;62850;42.428;25.618;2023-06-14T09:48:38;8.23;;;4.88;;
74415;SDS011;62850;42.428;25.618;2023-06-14T09:51:09;8.70;;;3.80;;
74415;SDS011;62850;42.428;25.618;2023-06-14T09:53:39;7.93;;;5.43;;
74415;SDS011;62850;42.428;25.618;2023-06-14T09:56:08;8.27;;;3.53;;
74415;SDS011;62850;42.428;25.618;2023-06-14T09:58:35;11.43;;;5.07;;
74415;SDS011;62850;42.428;25.618;2023-06-14T10:01:05;7.80;;;3.15;;
74415;SDS011;62850;42.428;25.618;2023-06-14T10:03:34;8.98;;;3.30;;
74415;SDS011;62850;42.428;25.618;2023-06-14T10:06:02;8.23;;;3.15;;
74415;SDS011;62850;42.428;25.618;2023-06-14T10:08:31;5.90;;;3.40;;
74415;SDS011;62850;42.428;25.618;2023-06-14T10:11:01;6.10;;;3.47;;
74415;SDS011;62850;42.428;25.618;2023-06-14T10:13:28;8.23;;;3.17;;
74415;SDS011;62850;42.428;25.618;2023-06-14T10:18:35;7.55;;;3.13;;
74415;SDS011;62850;42.428;25.618;2023-06-14T10:23:51;4.97;;;2.97;;
74415;SDS011;62850;42.428;25.618;2023-06-14T10:26:22;4.85;;;2.50;;
74415;SDS011;62850;42.428;25.618;2023-06-14T10:29:08;6.35;;;3.03;;
74415;SDS011;62850;42.428;25.618;2023-06-14T10:34:29;5.18;;;2.78;;
74415;SDS011;62850;42.428;25.618;2023-06-14T10:39:44;5.05;;;2.85;;
74415;SDS011;62850;42.428;25.618;2023-06-14T10:42:14;4.93;;;2.85;;
74415;SDS011;62850;42.428;25.618;2023-06-14T10:44:44;5.25;;;2.90;;
74415;SDS011;62850;42.428;25.618;2023-06-14T10:50:02;5.03;;;3.03;;
74415;SDS011;62850;42.428;25.618;2023-06-14T10:52:39;6.47;;;3.22;;
74415;SDS011;62850;42.428;25.618;2023-06-14T10:55:10;7.10;;;3.28;;
74415;SDS011;62850;42.428;25.618;2023-06-14T10:57:47;5.63;;;3.70;;
74415;SDS011;62850;42.428;25.618;2023-06-14T11:00:18;14.93;;;9.25;;
74415;SDS011;62850;42.428;25.618;2023-06-14T11:02:51;16.92;;;11.25;;
74415;SDS011;62850;42.428;25.618;2023-06-14T11:10:41;37.88;;;22.10;;
74415;SDS011;62850;42.428;25.618;2023-06-14T11:13:10;7.07;;;3.80;;
74415;SDS011;62850;42.428;25.618;2023-06-14T11:15:37;8.57;;;4.03;;
74415;SDS011;62850;42.428;25.618;2023-06-14T11:18:04;7.05;;;3.13;;
74415;SDS011;62850;42.428;25.618;2023-06-14T11:20:33;7.03;;;3.75;;
74415;SDS011;62850;42.428;25.618;2023-06-14T11:23:00;5.90;;;3.35;;
74415;SDS011;62850;42.428;25.618;2023-06-14T11:25:26;5.63;;;3.05;;
74415;SDS011;62850;42.428;25.618;2023-06-14T11:27:55;5.30;;;3.03;;
74415;SDS011;62850;42.428;25.618;2023-06-14T11:30:22;6.70;;;3.00;;
74415;SDS011;62850;42.428;25.618;2023-06-14T11:32:48;6.00;;;3.05;;
74415;SDS011;62850;42.428;25.618;2023-06-14T11:35:15;6.88;;;3.30;;
74415;SDS011;62850;42.428;25.618;2023-06-14T11:37:41;5.53;;;3.08;;
74415;SDS011;62850;42.428;25.618;2023-06-14T11:40:08;8.57;;;3.33;;
74415;SDS011;62850;42.428;25.618;2023-06-14T11:42:35;7.13;;;3.38;;
74415;SDS011;62850;42.428;25.618;2023-06-14T11:45:03;4.57;;;3.40;;
74415;SDS011;62850;42.428;25.618;2023-06-14T11:47:34;6.13;;;3.17;;
74415;SDS011;62850;42.428;25.618;2023-06-14T11:50:04;5.15;;;3.40;;
74415;SDS011;62850;42.428;25.618;2023-06-14T11:52:32;5.10;;;3.22;;
74415;SDS011;62850;42.428;25.618;2023-06-14T11:54:58;5.13;;;3.20;;
74415;SDS011;62850;42.428;25.618;2023-06-14T11:57:24;7.20;;;3.22;;
74415;SDS011;62850;42.428;25.618;2023-06-14T11:59:50;7.45;;;2.80;;
74415;SDS011;62850;42.428;25.618;2023-06-14T12:02:18;4.70;;;2.95;;
74415;SDS011;62850;42.428;25.618;2023-06-14T12:04:48;9.50;;;3.83;;
74415;SDS011;62850;42.428;25.618;2023-06-14T12:07:15;6.95;;;3.47;;
74415;SDS011;62850;42.428;25.618;2023-06-14T12:09:43;7.78;;;3.28;;
74415;SDS011;62850;42.428;25.618;2023-06-14T12:12:34;6.18;;;3.65;;
74415;SDS011;62850;42.428;25.618;2023-06-14T12:15:04;6.50;;;3.25;;
74415;SDS011;62850;42.428;25.618;2023-06-14T12:17:36;6.00;;;3.60;;
74415;SDS011;62850;42.428;25.618;2023-06-14T12:20:10;6.32;;;3.35;;
74415;SDS011;62850;42.428;25.618;2023-06-14T12:22:52;4.93;;;2.90;;
74415;SDS011;62850;42.428;25.618;2023-06-14T12:27:59;6.60;;;3.10;;
74415;SDS011;62850;42.428;25.618;2023-06-14T12:30:32;6.82;;;3.13;;
74415;SDS011;62850;42.428;25.618;2023-06-14T12:32:58;5.35;;;2.97;;
74415;SDS011;62850;42.428;25.618;2023-06-14T12:35:25;4.93;;;3.17;;
74415;SDS011;62850;42.428;25.618;2023-06-14T12:37:51;8.25;;;3.30;;
74415;SDS011;62850;42.428;25.618;2023-06-14T12:40:17;6.18;;;3.20;;
74415;SDS011;62850;42.428;25.618;2023-06-14T12:42:44;5.57;;;3.05;;
74415;SDS011;62850;42.428;25.618;2023-06-14T12:45:12;7.90;;;3.10;;
74415;SDS011;62850;42.428;25.618;2023-06-14T12:47:38;5.10;;;2.97;;
74415;SDS011;62850;42.428;25.618;2023-06-14T12:50:05;5.88;;;2.90;;
74415;SDS011;62850;42.428;25.618;2023-06-14T12:52:31;4.95;;;2.97;;
74415;SDS011;62850;42.428;25.618;2023-06-14T12:55:01;4.45;;;2.78;;
74415;SDS011;62850;42.428;25.618;2023-06-14T12:57:31;5.25;;;2.80;;
74415;SDS011;62850;42.428;25.618;2023-06-14T12:59:59;5.43;;;2.70;;
74415;SDS011;62850;42.428;25.618;2023-06-14T13:02:26;6.28;;;3.08;;
74415;SDS011;62850;42.428;25.618;2023-06-14T13:04:52;8.63;;;3.40;;
74415;SDS011;62850;42.428;25.618;2023-06-14T13:07:18;5.18;;;3.00;;
74415;SDS011;62850;42.428;25.618;2023-06-14T13:09:44;5.60;;;3.17;;
74415;SDS011;62850;42.428;25.618;2023-06-14T13:12:11;7.40;;;3.42;;
74415;SDS011;62850;42.428;25.618;2023-06-14T13:14:37;4.57;;;3.08;;
74415;SDS011;62850;42.428;25.618;2023-06-14T13:17:05;5.88;;;3.33;;
74415;SDS011;62850;42.428;25.618;2023-06-14T13:19:35;6.60;;;3.33;;
74415;SDS011;62850;42.428;25.618;2023-06-14T13:22:01;5.18;;;3.20;;
74415;SDS011;62850;42.428;25.618;2023-06-14T13:24:27;6.07;;;3.00;;
74415;SDS011;62850;42.428;25.618;2023-06-14T13:26:54;5.40;;;3.20;;
74415;SDS011;62850;42.428;25.618;2023-06-14T13:29:21;8.05;;;2.97;;
74415;SDS011;62850;42.428;25.618;2023-06-14T13:31:48;4.72;;;3.42;;
74415;SDS011;62850;42.428;25.618;2023-06-14T13:34:14;6.50;;;3.35;;
74415;SDS011;62850;42.428;25.618;2023-06-14T13:36:41;4.65;;;2.95;;
74415;SDS011;62850;42.428;25.618;2023-06-14T13:39:07;5.18;;;3.10;;
74415;SDS011;62850;42.428;25.618;2023-06-14T13:41:33;4.63;;;2.70;;
74415;SDS011;62850;42.428;25.618;2023-06-14T13:44:00;5.60;;;3.05;;
74415;SDS011;62850;42.428;25.618;2023-06-14T13:46:29;5.00;;;3.17;;
74415;SDS011;62850;42.428;25.618;2023-06-14T13:48:55;4.88;;;3.15;;
74415;SDS011;62850;42.428;25.618;2023-06-14T13:51:22;6.85;;;3.60;;
74415;SDS011;62850;42.428;25.618;2023-06-14T13:53:49;7.95;;;3.58;;
74415;SDS011;62850;42.428;25.618;2023-06-14T13:56:16;6.13;;;3.60;;
74415;SDS011;62850;42.428;25.618;2023-06-14T13:58:42;5.65;;;3.40;;
74415;SDS011;62850;42.428;25.618;2023-06-14T14:01:08;4.45;;;2.60;;
74415;SDS011;62850;42.428;25.618;2023-06-14T14:03:35;4.97;;;2.75;;
74415;SDS011;62850;42.428;25.618;2023-06-14T14:06:04;4.60;;;2.88;;
74415;SDS011;62850;42.428;25.618;2023-06-14T14:08:31;5.70;;;3.08;;
74415;SDS011;62850;42.428;25.618;2023-06-14T14:10:57;4.68;;;2.97;;
74415;SDS011;62850;42.428;25.618;2023-06-14T14:13:23;4.57;;;2.67;;
74415;SDS011;62850;42.428;25.618;2023-06-14T14:15:51;9.32;;;3.33;;
74415;SDS011;62850;42.428;25.618;2023-06-14T14:18:18;4.25;;;2.50;;
74415;SDS011;62850;42.428;25.618;2023-06-14T14:20:46;6.45;;;2.90;;
74415;SDS011;62850;42.428;25.618;2023-06-14T14:23:12;6.05;;;2.80;;
74415;SDS011;62850;42.428;25.618;2023-06-14T14:25:38;5.60;;;3.03;;
74415;SDS011;62850;42.428;25.618;2023-06-14T14:28:04;4.50;;;2.88;;
74415;SDS011;62850;42.428;25.618;2023-06-14T14:30:30;6.18;;;3.40;;
74415;SDS011;62850;42.428;25.618;2023-06-14T14:32:58;7.00;;;3.10;;
74415;SDS011;62850;42.428;25.618;2023-06-14T14:35:25;6.75;;;3.10;;
74415;SDS011;62850;42.428;25.618;2023-06-14T14:37:55;5.85;;;3.58;;
74415;SDS011;62850;42.428;25.618;2023-06-14T14:40:22;5.60;;;2.95;;
74415;SDS011;62850;42.428;25.618;2023-06-14T14:42:48;5.45;;;2.83;;
74415;SDS011;62850;42.428;25.618;2023-06-14T14:45:14;4.82;;;3.13;;
74415;SDS011;62850;42.428;25.618;2023-06-14T14:47:40;5.55;;;3.35;;
74415;SDS011;62850;42.428;25.618;2023-06-14T14:50:06;6.78;;;2.72;;
74415;SDS011;62850;42.428;25.618;2023-06-14T14:52:34;6.80;;;3.05;;
74415;SDS011;62850;42.428;25.618;2023-06-14T14:55:00;6.80;;;3.13;;
74415;SDS011;62850;42.428;25.618;2023-06-14T14:57:26;7.35;;;3.45;;
74415;SDS011;62850;42.428;25.618;2023-06-14T14:59:53;5.80;;;2.95;;
74415;SDS011;62850;42.428;25.618;2023-06-14T15:02:20;5.35;;;3.00;;
74415;SDS011;62850;42.428;25.618;2023-06-14T15:04:47;4.43;;;3.00;;
74415;SDS011;62850;42.428;25.618;2023-06-14T15:07:14;4.68;;;2.65;;